Plessisville, Canada
Current Conditions -  °F | °C
As of 11:00 AM on Sunday 25 Jan 2015 (Local Time) from CYQB Reporting Station
Blowing Snow Blowing Snow  
Wind Chill: -18°   Ceiling: Unl
Heat Index:   Visibility: 20mi
Dew Point: -4°   Wind: 25mph
Humidity: 66%   Direction: 270°W
Pressure: 29.58"   Gusts: 35mph
Location:  46.22°N, 71.77°W
Report Text: CYQB 251600Z 27022G30KT 20SM DRSN FEW035 SCT190 M15/M20 A2958 RMK SC1CI2 SLP023
Loading
Personal Weather Stations






























Interactive Weather Map New forecast layout! Learn more

10-Day Weather Forecast

Advertisements
Track Severe Weather on mobile